• Join FlightAware (Why Join?)
  • Login
  • US Flag 
02:52AM EDT


 

Airport Tracker/Info


-or-


 

Live Flight TrackerFlight Track Log ✈ SWA385 ✈ 11-Jul-2013 ✈ KSMF - KSNA

Flight Track Log - Related Links

Times and Time Zones

All times are in EDT time to prevent confusion due to time zone crossing. See the SWA385 flight status page for this flight to view local times or setup timezone preferences in your user account.

Time Position Orientation Groundspeed Altitude Reporting Facility
EDT Latitude Longitude Course Direction KTS MPH feet Rate Location/Type
12:12AM 38.6500 -121.5500 130° Southeast 201 231 4,200  Level Northern Cal TRACON
12:13AM 38.6167 -121.4667 117° Southeast 269 310 7,200 3,480 Climbing Northern Cal TRACON
12:15AM 38.5211 -121.2889 124° Southeast 342 394 14,600 2,580 Climbing Oakland Center
12:16AM 38.4681 -121.1786 122° Southeast 364 419 15,000 1,980 Climbing Oakland Center
12:17AM 38.4172 -121.0686 121° Southeast 367 422 18,700 3,420 Climbing Oakland Center
12:18AM 38.3608 -120.9500 121° Southeast 382 440 22,000 3,180 Climbing Oakland Center
12:19AM 38.3003 -120.8242 121° Southeast 407 468 25,200 2,940 Climbing Oakland Center
12:20AM 38.2350 -120.6936 122° Southeast 433 498 28,000 2,700 Climbing Oakland Center
12:21AM 38.1411 -120.5925 140° Southeast 441 507 30,700 1,440 Climbing Oakland Center
12:22AM 38.0450 -120.4986 142° Southeast 436 502 31,000 120 Climbing Oakland Center
12:23AM 37.9506 -120.4067 142° Southeast 430 495 31,000  Level Oakland Center
12:24AM 37.8556 -120.3161 143° Southeast 427 491 31,000  Level Oakland Center
12:25AM 37.7439 -120.2056 142° Southeast 426 490 31,000  Level Oakland Center
12:26AM 37.6497 -120.1164 143° Southeast 422 486 31,000  Level Oakland Center
12:27AM 37.5561 -120.0256 142° Southeast 424 488 31,000  Level Oakland Center
12:28AM 37.4625 -119.9361 143° Southeast 421 484 31,000  Level Oakland Center
12:29AM 37.3692 -119.8467 143° Southeast 421 484 31,000 660 Level Oakland Center
12:30AM 37.2675 -119.7844 154° Southeast 421 484 32,400 1,860 Climbing Oakland Center
12:31AM 37.1528 -119.7719 175° South 412 474 34,800 2,400 Climbing Oakland Center
12:32AM 37.0411 -119.7544 173° South 406 467 37,300 2,160 Climbing Oakland Center
12:33AM 36.9319 -119.7406 174° South 396 456 39,200 1,620 Climbing Oakland Center
12:34AM 36.8222 -119.7264 174° South 396 456 40,600 840 Climbing Oakland Center
12:35AM 36.7111 -119.7114 174° South 399 459 41,000 180 Climbing Oakland Center
12:36AM 36.5772 -119.6944 174° South 402 463 41,000  Level Oakland Center
12:37AM 36.4667 -119.6792 174° South 399 459 41,000  Level Oakland Center
12:38AM 36.3567 -119.6636 174° South 398 458 41,000  Level Oakland Center
12:39AM 36.2453 -119.6497 174° South 399 459 41,000  Level Oakland Center
12:40AM 36.1331 -119.6344 174° South 402 463 41,000  Level Oakland Center
12:41AM 36.0214 -119.6194 174° South 402 463 41,000  Level Oakland Center
12:42AM 35.9100 -119.6161 179° South 401 461 41,000  Level Oakland Center
12:43AM 35.7975 -119.6214 182° South 403 464 41,000  Level Oakland Center
12:44AM 35.6844 -119.6244 181° South 404 465 41,000  Level Oakland Center
12:45AM 35.5708 -119.6286 182° South 406 467 41,000  Level Oakland Center
12:46AM 35.4589 -119.6328 182° South 403 464 41,000  Level Oakland Center
12:47AM 35.3544 -119.5794 157° South 409 471 41,000  Level Oakland Center
12:48AM 35.2950 -119.5378 150° Southeast 413 475 41,000  Level Los Angeles Center
12:49AM 35.1944 -119.4675 150° Southeast 415 478 41,000  Level Los Angeles Center
12:50AM 35.0928 -119.3961 150° Southeast 418 481 41,000  Level Los Angeles Center
12:51AM 34.9911 -119.3253 150° Southeast 420 483 41,000 -840 Level Los Angeles Center
12:52AM 34.9111 -119.2681 150° Southeast 419 482 39,400 -2,400 Descending Los Angeles Center
12:53AM 34.7922 -119.1847 150° Southeast 412 474 36,100 -3,060 Descending Los Angeles Center
12:54AM 34.6911 -119.1153 151° Southeast 412 474 33,200 -2,940 Descending Los Angeles Center
12:55AM 34.5742 -119.0333 150° Southeast 406 467 30,100 -2,760 Descending Los Angeles Center
12:56AM 34.4789 -118.9678 150° Southeast 398 458 27,600 -2,280 Descending Los Angeles Center
12:57AM 34.3858 -118.9039 150° Southeast 387 445 25,400 -2,160 Descending Los Angeles Center
12:58AM 34.2931 -118.8572 157° South 366 421 23,200 -2,160 Descending Los Angeles Center
12:59AM 34.1983 -118.8231 163° South 355 409 21,000 -1,920 Descending Los Angeles Center
01:00AM 34.1081 -118.7900 163° South 343 395 18,900 -2,220 Descending Los Angeles Center
01:01AM 33.9881 -118.7461 163° South 336 387 16,100 -2,400 Descending Los Angeles Center
01:02AM 33.8989 -118.7139 163° South 334 384 14,000 -960 Descending Los Angeles Center
01:04AM 33.8069 -118.6806 163° South 328 377 14,000 -300 Level Los Angeles Center
01:05AM 33.7022 -118.6431 163° South 331 381 13,400 -1,320 Descending Los Angeles Center
01:06AM 33.6142 -118.6128 164° South 333 383 11,300 -1,800 Descending Los Angeles Center
01:07AM 33.5603 -118.5397 132° Southeast 314 361 9,800 -1,620 Descending Los Angeles Center
01:08AM 33.5400 -118.4453 104° East 302 348 8,100 -1,800 Descending Los Angeles Center
01:09AM 33.5481 -118.3297 85° East 297 342 6,200 -1,560 Descending Los Angeles Center
01:10AM 33.5581 -118.2372 83° East 290 334 5,000 -600 Descending Los Angeles Center
01:11AM 33.5681 -118.1467 82° East 283 326 5,000  Level Los Angeles Center
01:12AM 33.5803 -118.0667 80° East 264 304 5,000  Level Los Angeles Center
01:13AM 33.6333 -118.0333 28° Northeast 226 260 5,000  Level Southern California TRACON
01:14AM 33.6833 -117.9833 40° Northeast 226 260 5,000  Level Southern California TRACON
01:15AM 33.7333 -117.9500 29° Northeast 211 243 5,000 -300 Level Southern California TRACON
01:16AM 33.7833 -117.9167 29° Northeast 197 227 4,400 -600 Descending Southern California TRACON
01:17AM 33.8167 -117.8833 40° Northeast 172 198 3,900 -720 Descending Southern California TRACON
01:18AM 33.8333 -117.8333 68° East 151 174 3,000 -840 Descending Southern California TRACON
01:19AM 33.8000 -117.8000 140° Southeast 141 162 2,300 -600 Descending Southern California TRACON
01:20AM 33.7667 -117.8167 203° Southwest 144 166 1,800 -600 Descending Southern California TRACON
01:21AM 33.7333 -117.8333 203° Southwest 125 144 1,100 -720 Descending Southern California TRACON
01:22AM 33.7000 -117.8500 203° Southwest 122 140 500 -720 Descending Southern California TRACON